createdAt,value
2022-12-25T00:01:22.468Z,9.20
2022-12-25T00:04:11.798Z,9.03
2022-12-25T00:06:53.318Z,9.21
2022-12-25T00:09:41.728Z,8.89
2022-12-25T00:12:24.333Z,8.95
2022-12-25T00:15:14.352Z,9.30
2022-12-25T00:18:03.427Z,9.12
2022-12-25T00:20:52.387Z,8.80
2022-12-25T00:23:35.666Z,9.16
2022-12-25T00:26:26.295Z,9.40
2022-12-25T00:29:08.621Z,9.34
2022-12-25T00:31:57.487Z,9.16
2022-12-25T00:34:39.721Z,9.04
2022-12-25T00:37:28.256Z,9.17
2022-12-25T00:40:10.698Z,9.04
2022-12-25T00:42:59.288Z,8.75
2022-12-25T00:45:47.705Z,8.59
2022-12-25T00:48:30.275Z,8.41
2022-12-25T00:51:20.604Z,8.91
2022-12-25T00:54:03.394Z,8.95
2022-12-25T00:56:51.668Z,8.75
2022-12-25T00:59:33.471Z,8.99
2022-12-25T01:02:24.744Z,9.09
2022-12-25T01:05:06.233Z,9.31
2022-12-25T01:07:48.605Z,9.21
2022-12-25T01:10:37.282Z,9.12
2022-12-25T01:13:19.511Z,9.27
2022-12-25T01:16:08.380Z,9.22
2022-12-25T01:18:50.612Z,9.47
2022-12-25T01:21:39.277Z,9.57
2022-12-25T01:24:21.493Z,9.45
2022-12-25T01:27:10.307Z,9.47
2022-12-25T01:29:52.588Z,9.51
2022-12-25T01:32:41.384Z,9.62
2022-12-25T01:35:29.594Z,8.94
2022-12-25T01:38:11.348Z,9.23
2022-12-25T01:41:00.251Z,9.16
2022-12-25T01:43:49.272Z,9.30
2022-12-25T01:46:33.479Z,9.56
2022-12-25T01:49:31.298Z,9.75
2022-12-25T01:52:24.329Z,9.38
2022-12-25T01:55:12.493Z,9.28
2022-12-25T01:58:01.268Z,9.59
2022-12-25T02:00:51.465Z,9.58
2022-12-25T02:03:33.677Z,9.61
2022-12-25T02:06:23.357Z,8.95
2022-12-25T02:09:12.275Z,9.34
2022-12-25T02:12:07.379Z,9.28
2022-12-25T02:14:52.303Z,9.47
2022-12-25T02:17:58.340Z,9.72
2022-12-25T02:21:05.103Z,9.17
2022-12-25T02:23:57.278Z,9.25
2022-12-25T02:27:01.586Z,9.06
2022-12-25T02:30:07.336Z,8.72
2022-12-25T02:33:27.949Z,9.25
2022-12-25T02:36:15.392Z,8.70
2022-12-25T02:39:33.316Z,8.79
2022-12-25T02:42:29.430Z,9.11
2022-12-25T02:45:36.895Z,8.81
2022-12-25T02:48:39.341Z,9.30
2022-12-25T02:51:50.207Z,9.10
2022-12-25T02:55:04.631Z,9.12
2022-12-25T02:58:15.247Z,8.99
2022-12-25T03:01:31.575Z,8.75
2022-12-25T03:04:35.458Z,9.28
2022-12-25T03:07:27.212Z,9.21
2022-12-25T03:10:39.585Z,8.98
2022-12-25T03:13:27.335Z,9.26
2022-12-25T03:16:27.888Z,9.25
2022-12-25T03:19:35.340Z,9.50
2022-12-25T03:22:43.495Z,9.07
2022-12-25T03:25:51.253Z,9.26
2022-12-25T03:28:33.563Z,9.44
2022-12-25T03:31:40.330Z,9.17
2022-12-25T03:35:06.560Z,9.51
2022-12-25T03:38:17.289Z,9.76
2022-12-25T03:41:33.387Z,9.68
2022-12-25T03:45:12.235Z,9.58
2022-12-25T03:48:35.324Z,9.53
2022-12-25T03:51:40.891Z,9.82
2022-12-25T03:54:52.659Z,10.11
2022-12-25T03:57:53.002Z,10.11
2022-12-25T04:01:00.566Z,10.27
2022-12-25T04:04:07.349Z,10.21
2022-12-25T04:07:07.556Z,10.27
2022-12-25T04:10:15.280Z,10.30
2022-12-25T04:13:15.532Z,10.61
2022-12-25T04:16:35.300Z,10.59
2022-12-25T04:19:42.277Z,10.82
2022-12-25T04:22:43.196Z,10.95
2022-12-25T04:25:50.422Z,11.03
2022-12-25T04:28:51.099Z,10.88
2022-12-25T04:31:58.368Z,10.77
2022-12-25T04:35:05.334Z,10.78
2022-12-25T04:37:47.529Z,10.56
2022-12-25T04:40:36.318Z,10.91
2022-12-25T04:43:25.334Z,11.17
2022-12-25T04:46:14.587Z,11.25
2022-12-25T04:48:56.237Z,11.32
2022-12-25T04:51:46.327Z,11.12
2022-12-25T04:54:28.624Z,11.13
2022-12-25T04:57:17.386Z,11.38
2022-12-25T04:59:59.786Z,11.79
2022-12-25T05:02:48.402Z,11.51
2022-12-25T05:05:30.595Z,11.61
2022-12-25T05:08:19.367Z,11.52
2022-12-25T05:11:08.692Z,11.73
2022-12-25T05:13:56.600Z,11.77
2022-12-25T05:16:38.317Z,11.91
2022-12-25T05:19:28.030Z,11.57
2022-12-25T05:22:10.283Z,11.76
2022-12-25T05:24:52.586Z,12.00
2022-12-25T05:27:41.278Z,12.16
2022-12-25T05:30:30.207Z,12.37
2022-12-25T05:33:12.627Z,12.18
2022-12-25T05:36:01.235Z,12.17
2022-12-25T05:38:44.594Z,12.25
2022-12-25T05:41:34.680Z,12.23
2022-12-25T05:44:29.155Z,12.14
2022-12-25T05:47:18.397Z,11.74
2022-12-25T05:50:00.689Z,12.38
2022-12-25T05:52:50.223Z,12.79
2022-12-25T05:55:39.372Z,12.61
2022-12-25T05:58:27.573Z,12.80
2022-12-25T06:01:10.405Z,12.59
2022-12-25T06:04:00.726Z,12.77
2022-12-25T06:06:42.361Z,12.95
2022-12-25T06:09:24.491Z,13.49
2022-12-25T06:12:13.351Z,13.53
2022-12-25T06:15:02.176Z,13.80
2022-12-25T06:17:51.339Z,13.73
2022-12-25T06:20:40.050Z,13.93
2022-12-25T06:23:23.452Z,14.04
2022-12-25T06:26:14.603Z,14.66
2022-12-25T06:28:57.305Z,14.86
2022-12-25T06:31:39.593Z,14.70
2022-12-25T06:34:28.147Z,14.72
2022-12-25T06:37:17.585Z,14.44
2022-12-25T06:39:59.355Z,14.48
2022-12-25T06:42:47.514Z,14.88
2022-12-25T06:45:36.483Z,15.34
2022-12-25T06:48:18.527Z,15.13
2022-12-25T06:51:07.411Z,15.15
2022-12-25T06:53:49.564Z,15.28
2022-12-25T06:56:39.390Z,15.12
2022-12-25T06:59:28.307Z,15.32
2022-12-25T07:02:24.766Z,15.26
2022-12-25T07:05:08.240Z,15.34
2022-12-25T07:07:50.473Z,15.32
2022-12-25T07:10:39.304Z,14.98
2022-12-25T07:13:28.615Z,15.34
2022-12-25T07:16:12.222Z,15.32
2022-12-25T07:19:00.637Z,15.62
2022-12-25T07:21:43.272Z,15.42
2022-12-25T07:24:32.614Z,15.65
2022-12-25T07:27:16.397Z,15.38
2022-12-25T07:30:04.605Z,15.00
2022-12-25T07:32:50.257Z,15.48
2022-12-25T07:35:38.595Z,15.63
2022-12-25T07:38:21.355Z,15.64
2022-12-25T07:41:09.642Z,15.65
2022-12-25T07:43:52.326Z,15.80
2022-12-25T07:46:40.531Z,16.18
2022-12-25T07:49:23.289Z,16.30
2022-12-25T07:52:05.649Z,16.32
2022-12-25T07:54:54.273Z,16.64
2022-12-25T07:57:42.591Z,16.02
2022-12-25T08:00:25.323Z,16.12
2022-12-25T08:03:17.092Z,16.07
2022-12-25T08:05:59.206Z,16.01
2022-12-25T08:08:47.595Z,15.75
2022-12-25T08:11:30.396Z,16.03
2022-12-25T08:14:12.460Z,16.15
2022-12-25T08:17:01.390Z,16.45
2022-12-25T08:19:50.191Z,16.07
2022-12-25T08:22:39.334Z,16.18
2022-12-25T08:25:28.387Z,16.30
2022-12-25T08:28:10.501Z,16.24
2022-12-25T08:30:59.296Z,16.27
2022-12-25T08:33:41.604Z,16.11
2022-12-25T08:36:31.237Z,16.20
2022-12-25T08:39:20.323Z,16.31
2022-12-25T08:42:08.541Z,16.36
2022-12-25T08:44:50.271Z,16.20
2022-12-25T08:47:38.499Z,16.53
2022-12-25T08:50:20.342Z,16.22
2022-12-25T08:53:08.548Z,16.32
2022-12-25T08:55:51.312Z,16.46
2022-12-25T08:58:40.503Z,16.44
2022-12-25T09:01:23.442Z,16.39
2022-12-25T09:04:11.614Z,16.52
2022-12-25T09:06:53.175Z,16.09
2022-12-25T09:09:43.344Z,16.01
2022-12-25T09:12:25.528Z,16.09
2022-12-25T09:15:15.344Z,16.11
2022-12-25T09:17:57.503Z,16.17
2022-12-25T09:20:46.262Z,15.90
2022-12-25T09:23:35.173Z,15.63
2022-12-25T09:26:25.646Z,15.51
2022-12-25T09:29:08.355Z,15.79
2022-12-25T09:31:56.521Z,15.81
2022-12-25T09:34:39.279Z,15.77
2022-12-25T09:37:28.309Z,15.80
2022-12-25T09:40:18.315Z,15.51
2022-12-25T09:43:08.485Z,15.73
2022-12-25T09:45:57.238Z,15.83
2022-12-25T09:48:43.619Z,15.78
2022-12-25T09:51:36.108Z,15.87
2022-12-25T09:54:36.594Z,15.91
2022-12-25T09:57:26.255Z,15.62
2022-12-25T10:00:08.599Z,15.45
2022-12-25T10:03:24.337Z,15.59
2022-12-25T10:06:34.514Z,15.75
2022-12-25T10:09:40.363Z,15.76
2022-12-25T10:12:35.605Z,15.72
2022-12-25T10:15:53.260Z,15.75
2022-12-25T10:19:08.164Z,15.60
2022-12-25T10:22:03.162Z,15.69
2022-12-25T10:24:54.488Z,15.63
2022-12-25T10:27:49.156Z,15.66
2022-12-25T10:30:33.804Z,15.76
2022-12-25T10:33:23.212Z,15.65
2022-12-25T10:36:07.944Z,15.44
2022-12-25T10:38:57.388Z,15.47
2022-12-25T10:42:06.671Z,15.31
2022-12-25T10:45:17.348Z,15.10
2022-12-25T10:48:15.567Z,15.38
2022-12-25T10:50:58.276Z,15.18
2022-12-25T10:53:51.655Z,15.35
2022-12-25T10:56:34.194Z,15.14
2022-12-25T10:59:23.235Z,15.33
2022-12-25T11:02:27.438Z,15.40
2022-12-25T11:05:19.567Z,15.38
2022-12-25T11:08:03.305Z,15.47
2022-12-25T11:10:52.111Z,15.45
2022-12-25T11:13:44.163Z,15.47
2022-12-25T11:16:41.161Z,15.41
2022-12-25T11:19:36.354Z,15.52
2022-12-25T11:22:20.315Z,15.52
2022-12-25T11:25:09.212Z,15.47
2022-12-25T11:28:14.524Z,15.47
2022-12-25T11:31:03.610Z,15.26
2022-12-25T11:33:54.375Z,15.35
2022-12-25T11:36:53.291Z,15.41
2022-12-25T11:39:41.386Z,15.40
2022-12-25T11:42:42.337Z,15.35
2022-12-25T11:45:50.223Z,15.45
2022-12-25T11:48:45.109Z,15.39
2022-12-25T11:51:28.582Z,15.49
2022-12-25T11:54:35.166Z,15.48
2022-12-25T11:57:19.756Z,15.19
2022-12-25T12:00:14.297Z,15.31
2022-12-25T12:03:10.558Z,15.04
2022-12-25T12:06:06.276Z,14.91
2022-12-25T12:08:49.668Z,14.92
2022-12-25T12:11:56.159Z,15.12
2022-12-25T12:14:56.245Z,15.07
2022-12-25T12:17:38.566Z,15.11
2022-12-25T12:20:49.286Z,14.88
2022-12-25T12:23:43.207Z,14.68
2022-12-25T12:26:35.109Z,14.65
2022-12-25T12:29:34.517Z,14.46
2022-12-25T12:32:43.233Z,14.52
2022-12-25T12:35:39.186Z,14.71
2022-12-25T12:38:35.175Z,14.63
2022-12-25T12:41:26.172Z,14.74
2022-12-25T12:44:12.691Z,14.82
2022-12-25T12:47:04.147Z,14.84
2022-12-25T12:49:46.596Z,14.78
2022-12-25T12:52:47.351Z,14.76
2022-12-25T12:55:43.562Z,14.66
2022-12-25T12:58:57.326Z,14.62
2022-12-25T13:01:59.673Z,14.71
2022-12-25T13:04:57.283Z,14.55
2022-12-25T13:07:45.853Z,14.53
2022-12-25T13:10:47.228Z,14.48
2022-12-25T13:13:43.669Z,14.32
2022-12-25T13:16:34.239Z,14.21
2022-12-25T13:19:26.950Z,13.97
2022-12-25T13:22:30.264Z,14.02
2022-12-25T13:25:22.577Z,14.00
2022-12-25T13:28:12.265Z,14.10
2022-12-25T13:30:54.603Z,14.09
2022-12-25T13:33:43.222Z,13.92
2022-12-25T13:36:25.562Z,13.84
2022-12-25T13:39:22.261Z,13.79
2022-12-25T13:42:07.569Z,13.68
2022-12-25T13:45:01.265Z,13.57
2022-12-25T13:47:54.926Z,13.58
2022-12-25T13:50:42.285Z,13.62
2022-12-25T13:53:30.588Z,13.70
2022-12-25T13:56:13.244Z,13.39
2022-12-25T13:58:55.417Z,13.55
2022-12-25T14:01:44.359Z,13.52
2022-12-25T14:04:34.978Z,13.54
2022-12-25T14:07:20.282Z,13.30
2022-12-25T14:10:11.504Z,13.30
2022-12-25T14:12:57.122Z,13.26
2022-12-25T14:15:41.170Z,13.14
2022-12-25T14:18:33.174Z,13.23
2022-12-25T14:21:31.658Z,13.17
2022-12-25T14:24:23.182Z,13.20
2022-12-25T14:27:25.203Z,13.16
2022-12-25T14:30:08.663Z,13.04
2022-12-25T14:33:01.271Z,13.29
2022-12-25T14:35:43.605Z,13.31
2022-12-25T14:38:41.215Z,13.15
2022-12-25T14:41:34.660Z,13.22
2022-12-25T14:44:46.255Z,13.23
2022-12-25T14:47:36.255Z,13.08
2022-12-25T14:50:32.210Z,12.90
2022-12-25T14:53:29.524Z,13.20
2022-12-25T14:56:13.149Z,13.19
2022-12-25T14:59:11.159Z,13.20
2022-12-25T15:02:00.431Z,13.02
2022-12-25T15:04:51.462Z,13.12
2022-12-25T15:07:39.149Z,12.85
2022-12-25T15:10:58.824Z,12.97
2022-12-25T15:13:31.097Z,12.92
2022-12-25T15:16:22.419Z,12.93
2022-12-25T15:19:12.344Z,12.92
2022-12-25T15:22:01.485Z,12.99
2022-12-25T15:24:43.241Z,12.93
2022-12-25T15:27:31.443Z,13.01
2022-12-25T15:30:15.261Z,12.77
2022-12-25T15:32:57.417Z,12.67
2022-12-25T15:35:47.142Z,12.59
2022-12-25T15:38:29.363Z,12.48
2022-12-25T15:41:18.314Z,12.71
2022-12-25T15:44:06.564Z,12.54
2022-12-25T15:47:02.559Z,12.51
2022-12-25T15:49:51.575Z,12.63
2022-12-25T15:52:33.279Z,12.62
2022-12-25T15:55:16.535Z,12.47
2022-12-25T15:58:05.225Z,12.36
2022-12-25T16:00:54.243Z,12.39
2022-12-25T16:03:36.582Z,12.40
2022-12-25T16:06:26.108Z,12.41
2022-12-25T16:09:15.096Z,12.51
2022-12-25T16:12:04.288Z,12.53
2022-12-25T16:14:53.089Z,12.51
2022-12-25T16:17:41.486Z,12.31
2022-12-25T16:20:24.113Z,12.03
2022-12-25T16:23:12.493Z,12.09
2022-12-25T16:25:55.088Z,12.12
2022-12-25T16:28:44.232Z,12.18
2022-12-25T16:31:26.566Z,11.96
2022-12-25T16:34:16.195Z,11.99
2022-12-25T16:36:58.467Z,12.14
2022-12-25T16:39:47.216Z,12.15
2022-12-25T16:42:29.429Z,11.87
2022-12-25T16:45:18.200Z,11.86
2022-12-25T16:48:06.495Z,11.77
2022-12-25T16:50:50.200Z,11.73
2022-12-25T16:53:39.094Z,11.53
2022-12-25T16:56:24.135Z,11.76
2022-12-25T16:59:14.116Z,11.90
2022-12-25T17:01:57.048Z,11.78
2022-12-25T17:04:47.153Z,11.53
2022-12-25T17:07:29.362Z,11.87
2022-12-25T17:10:21.237Z,11.49
2022-12-25T17:13:03.460Z,11.70
2022-12-25T17:15:52.161Z,11.81
2022-12-25T17:18:34.373Z,11.71
2022-12-25T17:21:24.183Z,11.63
2022-12-25T17:24:21.091Z,11.71
2022-12-25T17:27:10.173Z,11.63
2022-12-25T17:29:52.480Z,11.73
2022-12-25T17:32:42.234Z,11.77
2022-12-25T17:35:25.572Z,11.85
2022-12-25T17:38:14.055Z,11.90
2022-12-25T17:41:05.043Z,11.85
2022-12-25T17:43:55.245Z,11.75
2022-12-25T17:46:50.142Z,11.75
2022-12-25T17:49:39.039Z,11.88
2022-12-25T17:52:29.506Z,11.87
2022-12-25T17:55:18.444Z,11.93
2022-12-25T17:58:01.532Z,11.75
2022-12-25T18:00:49.409Z,11.70
2022-12-25T18:03:32.336Z,11.69
2022-12-25T18:06:23.532Z,11.70
2022-12-25T18:09:07.112Z,11.75
2022-12-25T18:11:56.214Z,11.78
2022-12-25T18:14:38.474Z,11.76
2022-12-25T18:17:27.040Z,11.82
2022-12-25T18:20:10.524Z,12.00
2022-12-25T18:22:59.287Z,11.87
2022-12-25T18:25:41.586Z,12.04
2022-12-25T18:28:30.238Z,11.46
2022-12-25T18:31:21.522Z,11.55
2022-12-25T18:34:10.216Z,11.36
2022-12-25T18:36:53.439Z,11.15
2022-12-25T18:39:42.146Z,11.25
2022-12-25T18:42:44.127Z,10.83
2022-12-25T18:45:33.116Z,10.88
2022-12-25T18:48:21.479Z,10.94
2022-12-25T18:51:24.218Z,10.93
2022-12-25T18:54:12.395Z,11.07
2022-12-25T18:56:55.564Z,11.16
2022-12-25T18:59:45.050Z,10.98
2022-12-25T19:02:28.324Z,11.06
2022-12-25T19:05:17.414Z,11.23
2022-12-25T19:07:59.125Z,11.06
2022-12-25T19:10:49.070Z,11.33
2022-12-25T19:13:31.895Z,10.93
2022-12-25T19:16:22.159Z,11.03
2022-12-25T19:19:11.998Z,11.04
2022-12-25T19:22:02.425Z,10.90
2022-12-25T19:24:45.248Z,11.15
2022-12-25T19:27:27.329Z,11.37
2022-12-25T19:30:17.044Z,11.22
2022-12-25T19:32:59.447Z,11.21
2022-12-25T19:35:49.195Z,10.88
2022-12-25T19:38:38.072Z,11.02
2022-12-25T19:41:32.215Z,11.02
2022-12-25T19:44:20.398Z,11.08
2022-12-25T19:47:15.111Z,11.16
2022-12-25T19:50:04.155Z,11.31
2022-12-25T19:52:53.025Z,11.25
2022-12-25T19:55:41.470Z,11.33
2022-12-25T19:58:23.106Z,11.29
2022-12-25T20:01:17.226Z,10.93
2022-12-25T20:03:59.477Z,11.11
2022-12-25T20:06:50.157Z,11.39
2022-12-25T20:09:33.687Z,11.34
2022-12-25T20:12:24.069Z,11.48
2022-12-25T20:15:13.190Z,11.66
2022-12-25T20:18:02.623Z,11.51
2022-12-25T20:20:44.093Z,11.57
2022-12-25T20:23:32.347Z,11.64
2022-12-25T20:26:15.196Z,11.59
2022-12-25T20:28:58.445Z,11.64
2022-12-25T20:31:49.197Z,11.80
2022-12-25T20:34:37.373Z,11.52
2022-12-25T20:37:20.055Z,11.63
2022-12-25T20:40:09.058Z,11.61
2022-12-25T20:42:58.031Z,11.63
2022-12-25T20:45:43.681Z,11.41
2022-12-25T20:48:33.233Z,11.40
2022-12-25T20:51:25.501Z,11.44
2022-12-25T20:54:08.237Z,11.49
2022-12-25T20:56:56.458Z,11.61
2022-12-25T20:59:39.182Z,11.60
2022-12-25T21:02:34.263Z,11.19
2022-12-25T21:05:24.188Z,11.40
2022-12-25T21:08:06.403Z,11.61
2022-12-25T21:10:58.071Z,11.68
2022-12-25T21:13:49.092Z,11.37
2022-12-25T21:16:33.801Z,11.51
2022-12-25T21:19:23.176Z,11.42
2022-12-25T21:22:05.420Z,11.31
2022-12-25T21:24:56.187Z,11.28
2022-12-25T21:27:38.387Z,11.22
2022-12-25T21:30:27.138Z,11.06
2022-12-25T21:33:34.134Z,10.97
2022-12-25T21:36:23.526Z,11.22
2022-12-25T21:39:08.040Z,11.16
2022-12-25T21:41:50.308Z,11.14
2022-12-25T21:44:39.275Z,11.16
2022-12-25T21:48:02.543Z,11.30
2022-12-25T21:55:00.785Z,10.87
2022-12-25T21:57:42.089Z,10.84
2022-12-25T22:00:31.808Z,10.67
2022-12-25T22:03:23.372Z,10.94
2022-12-25T22:06:23.922Z,11.24
2022-12-25T22:09:16.140Z,11.43
2022-12-25T22:12:16.867Z,11.27
2022-12-25T22:15:10.772Z,11.31
2022-12-25T22:18:10.508Z,11.50
2022-12-25T22:20:58.866Z,11.17
2022-12-25T22:23:41.221Z,11.27
2022-12-25T22:26:29.774Z,11.48
2022-12-25T22:29:11.298Z,11.55
2022-12-25T22:31:59.817Z,11.39
2022-12-25T22:34:42.327Z,11.38
2022-12-25T22:37:31.024Z,11.60
2022-12-25T22:40:15.420Z,11.38
2022-12-25T22:43:05.014Z,11.51
2022-12-25T22:45:48.344Z,11.44
2022-12-25T22:48:40.154Z,11.66
2022-12-25T22:51:22.459Z,11.44
2022-12-25T22:54:11.105Z,11.57
2022-12-25T22:57:02.022Z,11.41
2022-12-25T22:59:52.441Z,11.19
2022-12-25T23:02:35.415Z,11.35
2022-12-25T23:05:17.396Z,11.07
2022-12-25T23:08:07.137Z,11.00
2022-12-25T23:10:56.023Z,11.03
2022-12-25T23:14:02.995Z,11.06
2022-12-25T23:16:52.381Z,10.78
2022-12-25T23:19:53.090Z,11.04
2022-12-25T23:22:53.444Z,10.93
2022-12-25T23:26:01.100Z,10.89
2022-12-25T23:29:09.905Z,10.83
2022-12-25T23:32:01.357Z,10.89
2022-12-25T23:34:45.650Z,10.97
2022-12-25T23:37:34.091Z,10.83
2022-12-25T23:40:22.976Z,10.83
2022-12-25T23:43:06.407Z,10.88
2022-12-25T23:45:55.088Z,11.07
2022-12-25T23:48:52.013Z,10.91
2022-12-25T23:51:43.000Z,10.71
2022-12-25T23:54:28.327Z,10.97
2022-12-25T23:57:17.108Z,10.98
2022-12-25T23:59:59.648Z,10.98
